Time;durP1;ratioP1;P1;durP2;ratioP2;P2;SDS_P1;SDS_P2;PMS_P1;PMS_P2;Temp;Humidity;BMP_temperature;BMP_pressure;BME280_temperature;BME280_humidity;BME280_pressure;Samples;Min_cycle;Max_cycle;Signal;HPM_P1;HPM_P2
2022/09/11 00:01:32;;;;;;;10.63;4.95;;;13.10;99.90;;;;;;5073364;28;20045;-71
2022/09/11 00:03:58;;;;;;;15.40;5.25;;;13.00;99.90;;;;;;5055440;28;20389;-71
2022/09/11 00:06:25;;;;;;;16.02;7.40;;;12.90;99.90;;;;;;5055257;28;20397;-71
2022/09/11 00:08:59;;;;;;;13.80;6.40;;;12.90;99.90;;;;;;5072964;28;20106;-76
2022/09/11 00:11:26;;;;;;;17.33;6.22;;;12.80;99.90;;;;;;5055078;28;20462;-73
2022/09/11 00:13:53;;;;;;;27.77;6.25;;;12.80;99.90;;;;;;5071755;28;20040;-73
2022/09/11 00:16:24;;;;;;;13.98;5.55;;;12.70;99.90;;;;;;5073000;28;20044;-73
2022/09/11 00:18:50;;;;;;;13.70;5.68;;;12.70;99.90;;;;;;5072782;28;20087;-71
2022/09/11 00:21:16;;;;;;;14.68;6.53;;;12.60;99.90;;;;;;5054989;28;20047;-72
2022/09/11 00:23:43;;;;;;;13.07;6.30;;;12.60;99.90;;;;;;5072884;28;20047;-72
2022/09/11 00:26:09;;;;;;;20.50;6.90;;;12.60;99.90;;;;;;5054914;28;20369;-71
2022/09/11 00:28:35;;;;;;;16.08;6.45;;;12.60;99.90;;;;;;5072719;28;20131;-72
2022/09/11 00:31:04;;;;;;;15.38;7.60;;;12.60;99.90;;;;;;5072604;28;20484;-71
2022/09/11 00:33:30;;;;;;;14.15;7.50;;;12.60;99.90;;;;;;5072953;28;20041;-71
2022/09/11 00:36:03;;;;;;;16.38;8.45;;;12.60;99.90;;;;;;5072441;28;20044;-69
2022/09/11 00:38:31;;;;;;;13.68;7.28;;;12.70;99.90;;;;;;5072812;28;20041;-72
2022/09/11 00:40:58;;;;;;;23.30;6.75;;;12.70;99.90;;;;;;5054645;28;20093;-70
2022/09/11 00:43:25;;;;;;;12.00;6.03;;;12.60;99.90;;;;;;5072421;28;20045;-71
2022/09/11 00:46:03;;;;;;;13.55;6.22;;;12.50;99.90;;;;;;5054775;28;20037;-72
2022/09/11 00:48:35;;;;;;;23.13;7.35;;;12.50;99.90;;;;;;5054487;28;20049;-72
2022/09/11 00:51:02;;;;;;;;;;;12.50;99.90;;;;;;5072967;28;20493;-68
2022/09/11 00:53:32;;;;;;;16.30;7.13;;;12.40;99.90;;;;;;5072267;28;20029;-71
2022/09/11 00:56:01;;;;;;;19.13;7.07;;;12.50;99.90;;;;;;5072616;28;20048;-72
2022/09/11 00:58:31;;;;;;;19.75;8.15;;;12.40;99.90;;;;;;5072244;28;20047;-72
2022/09/11 01:00:56;;;;;;;17.08;7.75;;;12.40;99.90;;;;;;5072343;28;20040;-73
2022/09/11 01:03:24;;;;;;;29.73;9.27;;;12.30;99.90;;;;;;5054560;28;20491;-72
2022/09/11 01:05:51;;;;;;;20.00;9.45;;;12.40;99.90;;;;;;5072327;28;20574;-71
2022/09/11 01:08:17;;;;;;;21.13;9.60;;;12.40;99.90;;;;;;5072756;28;20044;-71
2022/09/11 01:11:01;;;;;;;16.88;9.35;;;12.40;99.90;;;;;;5072345;28;20373;-71
2022/09/11 01:14:00;;;;;;;30.80;9.10;;;12.40;99.90;;;;;;5053974;28;20113;-68
2022/09/11 01:17:07;;;;;;;19.40;9.50;;;12.40;99.90;;;;;;5072279;28;20050;-71
2022/09/11 01:19:58;;;;;;;15.77;8.45;;;12.40;99.90;;;;;;4974649;28;20061;-72
2022/09/11 01:22:41;;;;;;;16.98;7.28;;;12.40;99.90;;;;;;4974737;28;20054;-71
2022/09/11 01:25:29;;;;;;;20.23;9.35;;;12.40;99.90;;;;;;4990750;28;20133;-73
2022/09/11 01:27:57;;;;;;;21.65;11.30;;;12.40;99.90;;;;;;4974142;28;20042;-69
2022/09/11 01:30:31;;;;;;;25.42;13.43;;;12.50;99.90;;;;;;4974359;28;20109;-72
2022/09/11 01:33:02;;;;;;;25.23;12.52;;;12.50;99.90;;;;;;4976632;28;20394;-73
2022/09/11 01:35:40;;;;;;;27.23;13.32;;;12.50;99.90;;;;;;4978226;28;20173;-72
2022/09/11 01:38:24;;;;;;;25.83;14.27;;;12.60;99.90;;;;;;4978292;28;20061;-69
2022/09/11 01:40:58;;;;;;;23.70;12.73;;;12.60;99.90;;;;;;4978403;28;20050;-73
2022/09/11 01:43:30;;;;;;;23.55;13.05;;;12.50;99.90;;;;;;4977783;28;20188;-73
2022/09/11 01:45:58;;;;;;;21.13;11.90;;;12.50;99.90;;;;;;4978078;28;20483;-73
2022/09/11 01:48:30;;;;;;;42.97;13.43;;;12.50;99.90;;;;;;4978037;28;20046;-73
2022/09/11 01:50:57;;;;;;;;;;;12.60;99.90;;;;;;4978441;28;20062;-69
2022/09/11 01:53:29;;;;;;;22.60;11.52;;;12.50;99.90;;;;;;4977828;28;19960;-72
2022/09/11 01:56:03;;;;;;;24.10;12.20;;;12.60;99.90;;;;;;5021527;28;20048;-72
2022/09/11 01:58:30;;;;;;;24.77;12.63;;;12.50;99.90;;;;;;5075497;28;20113;-72
2022/09/11 02:01:15;;;;;;;26.27;13.30;;;12.50;99.90;;;;;;5075273;28;20092;-72
2022/09/11 02:04:06;;;;;;;61.33;14.00;;;12.40;99.90;;;;;;5075379;28;20053;-73
2022/09/11 02:06:39;;;;;;;32.70;11.65;;;12.40;99.90;;;;;;5013503;28;20057;-71
2022/09/11 02:09:10;;;;;;;18.15;9.65;;;12.30;99.90;;;;;;4997383;28;20093;-71
2022/09/11 02:11:39;;;;;;;23.00;11.23;;;12.40;99.90;;;;;;4997188;28;20522;-71
2022/09/11 02:14:19;;;;;;;19.63;10.52;;;12.40;99.90;;;;;;5013207;28;20089;-72
2022/09/11 02:16:52;;;;;;;23.73;11.60;;;12.40;99.90;;;;;;4997127;28;20413;-70
2022/09/11 02:19:29;;;;;;;18.98;10.90;;;12.40;99.90;;;;;;4997085;28;20149;-71
2022/09/11 02:21:58;;;;;;;18.50;8.95;;;12.40;99.90;;;;;;4980283;28;20072;-72
2022/09/11 02:24:26;;;;;;;15.82;8.43;;;12.40;99.90;;;;;;5012985;28;20058;-72
2022/09/11 02:27:00;;;;;;;25.92;8.18;;;12.30;99.90;;;;;;4996799;28;20081;-76
2022/09/11 02:29:25;;;;;;;17.98;8.55;;;12.30;99.90;;;;;;5012726;28;20080;-77
2022/09/11 02:31:51;;;;;;;20.30;9.15;;;12.20;99.90;;;;;;4996332;28;20046;-76
2022/09/11 02:34:25;;;;;;;21.83;9.60;;;12.20;99.90;;;;;;5013049;28;20461;-77
2022/09/11 02:37:13;;;;;;;23.38;8.95;;;12.20;99.90;;;;;;5013208;28;20515;-77
2022/09/11 02:39:39;;;;;;;16.90;8.98;;;12.20;99.90;;;;;;4996737;28;20088;-77
2022/09/11 02:42:15;;;;;;;18.67;9.02;;;12.20;99.90;;;;;;5012863;28;20051;-77
2022/09/11 02:44:56;;;;;;;22.73;11.68;;;12.30;99.90;;;;;;5056236;28;20526;-78
2022/09/11 02:47:24;;;;;;;20.77;10.23;;;12.30;99.90;;;;;;5056974;28;20071;-77
2022/09/11 02:50:02;;;;;;;19.92;10.20;;;12.20;99.90;;;;;;5056784;28;20044;-77
2022/09/11 02:52:39;;;;;;;26.55;10.57;;;12.20;99.90;;;;;;5074377;28;20135;-75
2022/09/11 02:55:21;;;;;;;20.95;9.77;;;12.20;99.90;;;;;;5074258;28;20056;-78
2022/09/11 02:57:56;;;;;;;21.95;11.95;;;12.30;99.90;;;;;;5056595;28;20127;-78
2022/09/11 03:00:21;;;;;;;35.42;10.38;;;12.20;99.90;;;;;;5074247;28;20123;-76
2022/09/11 03:02:47;;;;;;;43.08;9.70;;;12.10;99.90;;;;;;5056374;28;20136;-73
2022/09/11 03:05:13;;;;;;;48.38;10.30;;;12.10;99.90;;;;;;5056631;28;20106;-71
2022/09/11 03:07:38;;;;;;;42.63;10.18;;;12.10;99.90;;;;;;5056674;28;20055;-73
2022/09/11 03:10:05;;;;;;;44.88;12.43;;;12.00;99.90;;;;;;5056560;28;20087;-72
2022/09/11 03:12:30;;;;;;;25.50;9.95;;;12.10;99.90;;;;;;5056376;28;20063;-73
2022/09/11 03:14:56;;;;;;;29.55;10.65;;;12.10;99.90;;;;;;5056242;28;20049;-72
2022/09/11 03:17:24;;;;;;;35.03;11.27;;;12.00;99.90;;;;;;5073468;28;20038;-77
2022/09/11 03:19:50;;;;;;;19.63;10.85;;;12.10;99.90;;;;;;5056439;28;20044;-77
2022/09/11 03:22:15;;;;;;;21.58;9.73;;;12.00;99.90;;;;;;5074094;28;20055;-73
2022/09/11 03:24:41;;;;;;;17.05;8.75;;;12.00;99.90;;;;;;5056019;28;20507;-73
2022/09/11 03:27:07;;;;;;;19.80;10.30;;;12.00;99.90;;;;;;5039635;28;20060;-78
2022/09/11 03:29:32;;;;;;;19.98;10.48;;;12.00;99.90;;;;;;5073832;28;20436;-78
2022/09/11 03:31:58;;;;;;;28.02;9.80;;;12.00;99.90;;;;;;5073626;28;20047;-77
2022/09/11 03:34:25;;;;;;;26.00;9.32;;;11.90;99.90;;;;;;5055628;28;20369;-73
2022/09/11 03:36:51;;;;;;;23.73;7.72;;;11.90;99.90;;;;;;5055794;28;20063;-78
2022/09/11 03:39:17;;;;;;;27.30;6.53;;;11.80;99.90;;;;;;5073652;28;20059;-76
2022/09/11 03:41:43;;;;;;;17.48;6.47;;;11.80;99.90;;;;;;5073726;28;20109;-77
2022/09/11 03:44:11;;;;;;;16.10;6.65;;;11.70;99.90;;;;;;5055869;28;20091;-74
2022/09/11 03:46:37;;;;;;;33.10;6.75;;;11.70;99.90;;;;;;5055357;28;20119;-77
2022/09/11 03:49:03;;;;;;;27.58;7.40;;;11.60;99.90;;;;;;5073065;28;20182;-77
2022/09/11 03:51:30;;;;;;;18.30;7.25;;;11.60;99.90;;;;;;5055302;28;20056;-76
2022/09/11 03:53:58;;;;;;;22.90;7.10;;;11.60;99.90;;;;;;5073315;28;20390;-77
2022/09/11 03:56:24;;;;;;;31.65;6.93;;;11.60;99.90;;;;;;5072718;28;20058;-77
2022/09/11 03:58:55;;;;;;;31.33;7.78;;;11.60;99.90;;;;;;5055730;28;20040;-76
2022/09/11 04:01:21;;;;;;;29.92;9.38;;;11.60;99.90;;;;;;5039038;28;20083;-74
2022/09/11 04:03:47;;;;;;;24.20;7.60;;;11.50;99.90;;;;;;5054287;28;20087;-78
2022/09/11 04:06:13;;;;;;;24.00;6.97;;;11.50;99.90;;;;;;5055489;28;20052;-72
2022/09/11 04:08:40;;;;;;;29.17;7.07;;;11.50;99.90;;;;;;5055316;28;20044;-71
2022/09/11 04:11:05;;;;;;;20.08;6.93;;;11.50;99.90;;;;;;5054361;28;20060;-72
2022/09/11 04:13:36;;;;;;;24.60;6.85;;;11.40;99.90;;;;;;5073004;28;20044;-72
2022/09/11 04:16:18;;;;;;;26.13;6.72;;;11.40;99.90;;;;;;5072906;28;20495;-72
2022/09/11 04:18:44;;;;;;;28.63;7.90;;;11.40;99.90;;;;;;5054888;28;20048;-73
2022/09/11 04:21:13;;;;;;;23.70;7.45;;;11.40;99.90;;;;;;5054694;28;20293;-72
2022/09/11 04:23:40;;;;;;;22.73;7.78;;;11.40;99.90;;;;;;5054847;28;20480;-72
2022/09/11 04:26:14;;;;;;;38.85;8.13;;;11.40;99.90;;;;;;5055107;28;20450;-72
2022/09/11 04:28:40;;;;;;;34.05;8.10;;;11.30;99.90;;;;;;5072905;28;20036;-72
2022/09/11 04:31:06;;;;;;;32.33;8.32;;;11.30;99.90;;;;;;5072590;28;20048;-72
2022/09/11 04:33:33;;;;;;;17.98;7.47;;;11.30;99.90;;;;;;5072688;28;20393;-70
2022/09/11 04:36:03;;;;;;;37.50;9.23;;;11.30;99.90;;;;;;5072615;28;20040;-72
2022/09/11 04:38:29;;;;;;;24.88;8.02;;;11.20;99.90;;;;;;5072578;28;20119;-73
2022/09/11 04:40:59;;;;;;;31.98;8.70;;;11.20;99.90;;;;;;5054652;28;20124;-71
2022/09/11 04:43:26;;;;;;;47.50;8.85;;;11.30;99.90;;;;;;5054349;28;20048;-72
2022/09/11 04:45:52;;;;;;;40.25;9.57;;;11.30;99.90;;;;;;5072650;28;20044;-73
2022/09/11 04:48:18;;;;;;;40.47;8.07;;;11.30;99.90;;;;;;5072319;28;20040;-71
2022/09/11 04:50:44;;;;;;;34.28;9.88;;;11.30;99.90;;;;;;5072252;28;20049;-72
2022/09/11 04:53:09;;;;;;;35.35;8.25;;;11.30;99.90;;;;;;5072456;28;20039;-71
2022/09/11 04:55:35;;;;;;;44.72;9.63;;;11.30;99.90;;;;;;5072521;28;20076;-70
2022/09/11 04:58:01;;;;;;;51.53;9.77;;;11.30;99.90;;;;;;5054649;28;20050;-70
2022/09/11 05:00:27;;;;;;;48.40;9.27;;;11.30;99.90;;;;;;5072262;28;20535;-69
2022/09/11 05:02:53;;;;;;;60.65;9.48;;;11.30;99.90;;;;;;5054395;28;20053;-72
2022/09/11 05:05:19;;;;;;;56.25;9.40;;;11.30;99.90;;;;;;5053844;28;20060;-71
2022/09/11 05:07:49;;;;;;;50.72;10.43;;;11.20;99.90;;;;;;5057823;28;20409;-72
2022/09/11 05:10:15;;;;;;;39.80;8.82;;;11.30;99.90;;;;;;5058291;28;20050;-70
2022/09/11 05:12:40;;;;;;;33.92;10.68;;;11.30;99.90;;;;;;5057784;28;20143;-71
2022/09/11 05:15:06;;;;;;;20.92;8.52;;;11.40;99.90;;;;;;5076265;28;20119;-73
2022/09/11 05:17:33;;;;;;;26.00;8.43;;;11.40;99.90;;;;;;5058633;28;20059;-72
2022/09/11 05:19:58;;;;;;;25.67;8.60;;;11.50;99.90;;;;;;5076296;28;20045;-71
2022/09/11 05:22:25;;;;;;;25.85;8.40;;;11.50;99.90;;;;;;5076397;28;20377;-72
2022/09/11 05:24:51;;;;;;;24.58;8.75;;;11.50;99.90;;;;;;5041246;28;20064;-72
2022/09/11 05:27:16;;;;;;;25.58;9.30;;;11.50;99.90;;;;;;5076302;28;20036;-72
2022/09/11 05:29:42;;;;;;;30.45;8.20;;;11.50;99.90;;;;;;5058200;28;20191;-71
2022/09/11 05:32:08;;;;;;;32.42;9.35;;;11.50;99.90;;;;;;5075784;28;20515;-72
2022/09/11 05:34:34;;;;;;;36.97;8.55;;;11.50;99.90;;;;;;5057827;28;20056;-72
2022/09/11 05:37:01;;;;;;;31.52;9.10;;;11.50;99.90;;;;;;5057762;28;20131;-71
2022/09/11 05:39:27;;;;;;;23.58;8.70;;;11.60;99.90;;;;;;5076071;28;20047;-72
2022/09/11 05:41:54;;;;;;;25.27;9.27;;;11.60;99.90;;;;;;5076053;28;20041;-70
2022/09/11 05:44:20;;;;;;;19.08;8.43;;;11.60;99.90;;;;;;5058463;28;20055;-72
2022/09/11 05:46:45;;;;;;;16.38;9.02;;;11.60;99.90;;;;;;5075661;28;20115;-71
2022/09/11 05:49:11;;;;;;;25.45;8.93;;;11.70;99.90;;;;;;5057941;28;20106;-73
2022/09/11 05:51:39;;;;;;;21.02;8.88;;;11.70;99.90;;;;;;5075539;28;20113;-71
2022/09/11 05:54:04;;;;;;;14.90;7.93;;;11.80;99.90;;;;;;5057638;28;20110;-72
2022/09/11 05:56:30;;;;;;;25.17;8.18;;;11.80;99.90;;;;;;5057684;28;20580;-71
2022/09/11 05:58:57;;;;;;;15.93;8.38;;;11.80;99.90;;;;;;5057685;28;20045;-66
2022/09/11 06:01:25;;;;;;;19.70;8.35;;;11.80;99.90;;;;;;5075500;28;20403;-70
2022/09/11 06:03:51;;;;;;;20.55;8.38;;;11.90;99.90;;;;;;5041223;28;20462;-72
2022/09/11 06:06:19;;;;;;;21.48;8.65;;;12.00;99.90;;;;;;5075207;28;20049;-73
2022/09/11 06:08:46;;;;;;;20.23;8.68;;;12.10;99.90;;;;;;5056995;28;20378;-72
2022/09/11 06:11:14;;;;;;;19.60;7.90;;;12.10;99.90;;;;;;5057522;28;20408;-71
2022/09/11 06:13:41;;;;;;;19.73;8.10;;;12.20;99.90;;;;;;5075372;28;20044;-70
2022/09/11 06:16:12;;;;;;;16.35;8.25;;;12.30;99.90;;;;;;5057286;28;20048;-70
2022/09/11 06:18:38;;;;;;;15.88;8.60;;;12.40;99.90;;;;;;5056145;28;20056;-70
2022/09/11 06:21:06;;;;;;;18.83;9.13;;;12.40;99.90;;;;;;5056241;28;20767;-73
2022/09/11 06:23:34;;;;;;;16.63;8.38;;;12.50;99.90;;;;;;5074996;28;20060;-71
2022/09/11 06:26:09;;;;;;;16.27;8.93;;;12.60;99.90;;;;;;5057300;28;20041;-69
2022/09/11 06:28:35;;;;;;;15.38;8.27;;;12.70;99.90;;;;;;5057285;28;20048;-71
2022/09/11 06:31:12;;;;;;;16.88;8.18;;;12.80;99.90;;;;;;5057193;28;20040;-71
2022/09/11 06:33:39;;;;;;;18.60;9.32;;;12.90;99.90;;;;;;5075451;28;20119;-72
2022/09/11 06:36:17;;;;;;;19.50;8.80;;;13.00;99.90;;;;;;5057034;28;20194;-72
2022/09/11 06:38:43;;;;;;;20.90;8.60;;;13.00;99.90;;;;;;5056927;28;20119;-72
2022/09/11 06:41:12;;;;;;;23.77;9.13;;;13.10;99.90;;;;;;5074705;28;20044;-74
2022/09/11 06:43:39;;;;;;;34.45;9.88;;;13.30;99.90;;;;;;5074890;28;20083;-71
2022/09/11 06:46:05;;;;;;;33.30;10.00;;;13.30;99.90;;;;;;5074985;28;20116;-72
2022/09/11 06:48:31;;;;;;;29.52;9.95;;;13.40;99.90;;;;;;5056700;28;20056;-73
2022/09/11 06:51:02;;;;;;;33.13;10.10;;;13.50;99.90;;;;;;5056485;28;20048;-72
2022/09/11 06:53:27;;;;;;;28.23;9.88;;;13.60;99.90;;;;;;5074073;28;20053;-72
2022/09/11 06:55:58;;;;;;;30.90;10.57;;;13.70;99.90;;;;;;5074291;28;20130;-72
2022/09/11 06:58:24;;;;;;;27.77;10.98;;;13.80;99.90;;;;;;5056856;28;20098;-71
2022/09/11 07:00:49;;;;;;;32.65;11.38;;;13.90;99.90;;;;;;5074716;28;20117;-71
2022/09/11 07:03:15;;;;;;;34.30;11.00;;;13.90;99.90;;;;;;5056678;28;20044;-73
2022/09/11 07:05:46;;;;;;;28.23;11.93;;;14.00;99.90;;;;;;5056394;28;20052;-73
2022/09/11 07:08:11;;;;;;;51.67;14.95;;;14.10;99.90;;;;;;5074110;28;20047;-75
2022/09/11 07:10:37;;;;;;;43.40;12.18;;;14.20;99.90;;;;;;5073855;28;20033;-77
2022/09/11 07:13:03;;;;;;;26.55;10.82;;;14.30;99.90;;;;;;5056245;28;20377;-77
2022/09/11 07:15:28;;;;;;;33.38;9.93;;;14.30;99.90;;;;;;5039511;28;20373;-72
2022/09/11 07:17:54;;;;;;;25.27;10.55;;;14.30;99.90;;;;;;5074347;28;20048;-77
2022/09/11 07:20:21;;;;;;;32.97;11.02;;;14.40;99.90;;;;;;5056397;28;20072;-76
2022/09/11 07:22:47;;;;;;;32.05;11.02;;;14.60;99.90;;;;;;5039153;28;20055;-76
2022/09/11 07:25:13;;;;;;;25.77;10.38;;;14.60;99.90;;;;;;5055721;28;20041;-76
2022/09/11 07:27:39;;;;;;;22.52;9.57;;;14.60;99.90;;;;;;5073701;28;20080;-73
2022/09/11 07:30:05;;;;;;;23.98;9.90;;;14.80;99.90;;;;;;5073016;28;20079;-78
2022/09/11 07:32:31;;;;;;;19.58;9.50;;;14.80;99.90;;;;;;5073854;28;20056;-77
2022/09/11 07:34:56;;;;;;;22.58;10.35;;;14.80;99.90;;;;;;5055796;28;20036;-78
2022/09/11 07:37:22;;;;;;;21.05;9.02;;;14.90;99.90;;;;;;5056169;28;20048;-78
2022/09/11 07:39:48;;;;;;;32.28;9.98;;;15.00;99.90;;;;;;5073158;28;20048;-78
2022/09/11 07:42:13;;;;;;;20.92;9.82;;;15.10;99.90;;;;;;5073470;28;20040;-75
2022/09/11 07:44:39;;;;;;;23.00;9.48;;;15.20;99.90;;;;;;5073655;28;20048;-75
2022/09/11 07:47:05;;;;;;;31.08;9.43;;;15.20;99.90;;;;;;5038732;28;20499;-77
2022/09/11 07:49:31;;;;;;;18.13;8.70;;;15.20;99.90;;;;;;5073442;28;20090;-78
2022/09/11 07:51:58;;;;;;;20.85;9.77;;;15.30;99.90;;;;;;5055250;28;20044;-69
2022/09/11 07:54:26;;;;;;;20.15;10.00;;;15.40;99.90;;;;;;5055239;28;20061;-78
2022/09/11 07:56:51;;;;;;;14.85;8.55;;;15.50;99.90;;;;;;5073208;28;20404;-76
2022/09/11 07:59:17;;;;;;;16.50;9.60;;;15.50;99.90;;;;;;5055748;28;20047;-77
2022/09/11 08:01:43;;;;;;;20.70;9.20;;;15.60;99.90;;;;;;5055336;28;20135;-78
2022/09/11 08:04:10;;;;;;;20.95;9.70;;;15.70;99.90;;;;;;5073327;28;20120;-79
2022/09/11 08:06:37;;;;;;;19.75;9.45;;;15.70;99.90;;;;;;5073103;28;20043;-78
2022/09/11 08:09:08;;;;;;;21.20;9.73;;;15.80;99.90;;;;;;5055130;28;20495;-78
2022/09/11 08:11:40;;;;;;;16.43;9.20;;;15.90;99.90;;;;;;5054949;28;20105;-78
2022/09/11 08:14:06;;;;;;;;;;;16.00;99.90;;;;;;5073551;28;20279;-77
2022/09/11 08:16:35;;;;;;;20.08;9.48;;;16.00;99.90;;;;;;5073040;28;19966;-76
2022/09/11 08:19:01;;;;;;;16.95;10.13;;;16.10;99.90;;;;;;5072788;28;20056;-76
2022/09/11 08:21:26;;;;;;;15.93;9.32;;;16.10;99.90;;;;;;5072911;28;20551;-74
2022/09/11 08:23:52;;;;;;;14.98;9.23;;;16.10;99.90;;;;;;5073205;28;20086;-78
2022/09/11 08:26:20;;;;;;;15.45;9.23;;;16.10;99.90;;;;;;5072332;28;20047;-77
2022/09/11 08:28:49;;;;;;;17.23;10.20;;;16.10;99.90;;;;;;5054631;28;20143;-79
2022/09/11 08:31:16;;;;;;;17.25;10.18;;;16.10;99.90;;;;;;5072851;28;20481;-78
2022/09/11 08:33:42;;;;;;;17.45;9.60;;;16.10;99.90;;;;;;5072019;28;20485;-76
2022/09/11 08:36:09;;;;;;;18.17;10.30;;;16.20;99.90;;;;;;5073100;28;20467;-81
2022/09/11 08:38:36;;;;;;;19.73;11.38;;;16.20;99.90;;;;;;5064441;28;20550;-79
2022/09/11 08:41:40;;;;;;;19.17;11.40;;;16.40;99.90;;;;;;5072459;28;20433;-80
2022/09/11 08:44:08;;;;;;;17.75;10.52;;;16.50;99.90;;;;;;5072982;28;20098;-74
2022/09/11 08:46:38;;;;;;;20.02;11.98;;;16.70;99.90;;;;;;5071285;28;20132;-76
2022/09/11 08:49:18;;;;;;;19.30;11.43;;;16.90;99.90;;;;;;5072452;28;20484;-74
2022/09/11 08:51:47;;;;;;;19.58;11.50;;;17.00;99.90;;;;;;5072876;28;20080;-75
2022/09/11 08:54:26;;;;;;;18.08;11.52;;;17.10;99.90;;;;;;5081868;28;20048;-76
2022/09/11 08:56:56;;;;;;;20.92;10.90;;;17.20;99.90;;;;;;5074610;28;20048;-75
2022/09/11 08:59:48;;;;;;;19.48;11.57;;;17.30;99.90;;;;;;5074747;28;20040;-75
2022/09/11 09:02:30;;;;;;;18.40;10.68;;;17.40;99.90;;;;;;5092685;28;20498;-71
2022/09/11 09:05:13;;;;;;;19.67;12.85;;;17.50;99.90;;;;;;5093177;28;20044;-75
2022/09/11 09:08:03;;;;;;;16.75;10.35;;;17.60;99.90;;;;;;5092984;28;20070;-75
2022/09/11 09:10:44;;;;;;;18.10;10.35;;;17.80;99.90;;;;;;5057907;28;20040;-74
2022/09/11 09:13:28;;;;;;;16.58;10.23;;;18.00;99.90;;;;;;5074604;28;20186;-76
2022/09/11 09:16:03;;;;;;;15.85;9.27;;;18.10;99.90;;;;;;5074845;28;20079;-75
2022/09/11 09:18:35;;;;;;;16.33;8.45;;;18.40;99.90;;;;;;5092607;28;20123;-78
2022/09/11 09:21:19;;;;;;;14.02;8.27;;;18.40;99.90;;;;;;5092562;28;20128;-75
2022/09/11 09:23:52;;;;;;;12.82;7.45;;;18.60;99.90;;;;;;5092942;28;20040;-72
2022/09/11 09:26:18;;;;;;;13.20;6.60;;;18.70;99.90;;;;;;5074403;28;20101;-74
2022/09/11 09:28:50;;;;;;;12.40;7.65;;;18.80;99.90;;;;;;5074495;28;20480;-74
2022/09/11 09:31:20;;;;;;;13.68;7.53;;;19.00;99.90;;;;;;5092583;28;20134;-79
2022/09/11 09:34:14;;;;;;;13.57;6.75;;;19.10;99.90;;;;;;5073471;28;20048;-75
2022/09/11 09:36:46;;;;;;;9.65;5.30;;;19.10;99.90;;;;;;5092470;28;20511;-74
2022/09/11 09:39:17;;;;;;;12.35;5.97;;;19.00;99.90;;;;;;5086292;28;20090;-73
2022/09/11 09:41:48;;;;;;;11.23;6.00;;;18.90;99.90;;;;;;5063203;28;20083;-74
2022/09/11 09:44:41;;;;;;;9.73;4.97;;;18.80;99.90;;;;;;5090610;28;20105;-73
2022/09/11 09:47:11;;;;;;;11.20;5.60;;;18.80;99.90;;;;;;5009948;28;20137;-73
2022/09/11 09:49:37;;;;;;;11.23;5.55;;;18.90;99.90;;;;;;5010451;28;20066;-76
2022/09/11 09:52:34;;;;;;;9.80;5.03;;;19.20;99.90;;;;;;4993707;28;20062;-74
2022/09/11 09:55:02;;;;;;;12.15;6.28;;;19.30;99.90;;;;;;5012373;28;20057;-75
2022/09/11 09:57:33;;;;;;;10.85;5.50;;;19.50;99.90;;;;;;4997026;28;20757;-72
2022/09/11 10:00:13;;;;;;;11.23;5.47;;;19.40;99.90;;;;;;4995454;28;20057;-73
2022/09/11 10:02:44;;;;;;;10.10;4.20;;;19.50;99.90;;;;;;4994732;28;20050;-76
2022/09/11 10:05:43;;;;;;;10.20;5.03;;;19.40;99.90;;;;;;4994003;28;20259;-73
2022/09/11 10:08:35;;;;;;;9.82;5.03;;;19.40;99.90;;;;;;4997715;28;20046;-73
2022/09/11 10:11:07;;;;;;;10.75;5.18;;;19.30;99.90;;;;;;4961185;28;20054;-71
2022/09/11 10:13:38;;;;;;;11.00;4.20;;;19.20;99.90;;;;;;5007539;28;20401;-71
2022/09/11 10:16:18;;;;;;;10.20;4.85;;;19.30;99.90;;;;;;4991883;28;20135;-73
2022/09/11 10:18:45;;;;;;;10.30;4.97;;;19.30;99.90;;;;;;4995359;28;20046;-71
2022/09/11 10:21:11;;;;;;;10.98;4.30;;;19.20;99.90;;;;;;4990792;28;20133;-74
2022/09/11 10:23:49;;;;;;;8.98;4.28;;;19.10;99.90;;;;;;5031815;28;20186;-71
2022/09/11 10:26:37;;;;;;;12.38;5.03;;;19.20;99.90;;;;;;5071999;28;20058;-70
2022/09/11 10:29:18;;;;;;;8.93;4.10;;;19.50;99.90;;;;;;5072749;28;20064;-74
2022/09/11 10:31:55;;;;;;;8.70;3.97;;;19.80;99.90;;;;;;5038510;28;20093;-70
2022/09/11 10:34:24;;;;;;;9.65;3.92;;;20.00;99.90;;;;;;5054644;28;20053;-70
2022/09/11 10:37:04;;;;;;;7.82;3.05;;;20.30;99.90;;;;;;5064623;28;20138;-72
2022/09/11 10:39:34;;;;;;;6.88;2.65;;;20.50;99.90;;;;;;5054131;28;20549;-71
2022/09/11 10:42:11;;;;;;;7.40;2.53;;;20.80;99.90;;;;;;5046973;28;20060;-70
2022/09/11 10:44:42;;;;;;;8.20;3.13;;;21.10;99.90;;;;;;5054198;28;20056;-71
2022/09/11 10:47:27;;;;;;;9.25;3.00;;;21.30;99.90;;;;;;5053007;28;20047;-70
2022/09/11 10:50:24;;;;;;;6.32;2.72;;;21.50;99.90;;;;;;5034194;28;20048;-70
2022/09/11 10:53:15;;;;;;;9.27;3.72;;;21.70;99.90;;;;;;5075355;28;20032;-71
2022/09/11 10:56:04;;;;;;;7.53;2.80;;;21.80;99.90;;;;;;5047900;28;20128;-73
2022/09/11 10:58:36;;;;;;;7.88;2.53;;;21.70;99.90;;;;;;5024842;28;20064;-72
2022/09/11 11:01:02;;;;;;;7.35;2.30;;;21.60;99.90;;;;;;5034094;28;20489;-73
2022/09/11 11:03:28;;;;;;;4.05;1.88;;;21.60;99.90;;;;;;5053114;28;20087;-68
2022/09/11 11:06:20;;;;;;;4.57;2.00;;;21.70;99.90;;;;;;5036405;28;20059;-71
2022/09/11 11:09:28;;;;;;;10.27;2.17;;;21.90;99.90;;;;;;5029717;28;20045;-73
2022/09/11 11:12:02;;;;;;;6.13;2.15;;;22.00;99.90;;;;;;5052177;28;20524;-71
2022/09/11 11:14:33;;;;;;;7.38;2.63;;;22.20;99.90;;;;;;5036168;28;20049;-70
2022/09/11 11:17:13;;;;;;;8.27;3.45;;;22.30;99.90;;;;;;5036283;28;20056;-73
2022/09/11 11:20:06;;;;;;;8.45;2.25;;;22.40;99.90;;;;;;5019669;28;20045;-73
2022/09/11 11:23:19;;;;;;;5.32;2.60;;;22.40;99.90;;;;;;4992529;28;20109;-72
2022/09/11 11:26:09;;;;;;;6.90;2.30;;;22.50;99.90;;;;;;4934561;29;20098;-72
2022/09/11 11:28:38;;;;;;;4.28;1.90;;;22.30;99.90;;;;;;4919029;29;20484;-71
2022/09/11 11:31:14;;;;;;;13.95;2.55;;;22.10;99.90;;;;;;4917825;29;20087;-74
2022/09/11 11:33:58;;;;;;;6.10;1.80;;;22.00;99.90;;;;;;4928770;29;20094;-74
2022/09/11 11:36:33;;;;;;;5.35;1.73;;;22.00;99.90;;;;;;4933954;29;20576;-73
2022/09/11 11:39:25;;;;;;;4.63;1.80;;;22.20;99.90;;;;;;4932123;29;20172;-73
2022/09/11 11:42:22;;;;;;;5.05;1.65;;;22.50;99.90;;;;;;4933383;29;20079;-75
2022/09/11 11:45:02;;;;;;;4.47;1.70;;;22.40;99.90;;;;;;4916700;29;20792;-75
2022/09/11 11:47:34;;;;;;;3.67;1.60;;;22.20;99.90;;;;;;4932909;29;20460;-70
2022/09/11 11:50:11;;;;;;;;;;;22.00;99.90;;;;;;4933080;29;20063;-73
2022/09/11 11:52:48;;;;;;;3.38;1.40;;;21.80;99.90;;;;;;4917803;29;20383;-72
2022/09/11 11:55:24;;;;;;;4.05;1.42;;;21.70;99.90;;;;;;4954002;28;20046;-72
2022/09/11 11:58:03;;;;;;;4.93;1.58;;;21.60;99.90;;;;;;4945349;28;20228;-76
2022/09/11 12:00:37;;;;;;;4.32;1.65;;;21.60;99.90;;;;;;4970308;28;20067;-75
2022/09/11 12:03:22;;;;;;;5.43;1.77;;;21.50;99.90;;;;;;5052715;28;20497;-79
2022/09/11 12:05:48;;;;;;;3.65;1.55;;;21.40;99.90;;;;;;5064213;28;20040;-74
2022/09/11 12:08:15;;;;;;;3.53;1.55;;;21.40;99.90;;;;;;5061357;28;20404;-75
2022/09/11 12:11:05;;;;;;;4.80;1.73;;;21.30;99.90;;;;;;5079894;28;20036;-73
2022/09/11 12:13:34;;;;;;;3.83;1.60;;;21.30;99.90;;;;;;5081262;28;20076;-73
2022/09/11 12:16:21;;;;;;;6.07;1.80;;;21.20;99.90;;;;;;5064044;28;20476;-74
2022/09/11 12:19:03;;;;;;;4.25;1.70;;;21.20;99.90;;;;;;5078393;28;20070;-79
2022/09/11 12:21:30;;;;;;;7.65;2.00;;;21.20;99.90;;;;;;5062457;28;20088;-74
2022/09/11 12:23:55;;;;;;;6.07;1.70;;;21.30;99.90;;;;;;5082554;28;20054;-74
2022/09/11 12:26:21;;;;;;;5.65;2.03;;;21.40;99.90;;;;;;5080861;28;20119;-78
2022/09/11 12:28:48;;;;;;;5.03;1.90;;;21.40;99.90;;;;;;5084469;28;20135;-78
2022/09/11 12:31:16;;;;;;;4.97;1.70;;;21.70;99.90;;;;;;5059507;28;20050;-74
2022/09/11 12:33:47;;;;;;;3.25;1.58;;;21.90;99.90;;;;;;5063416;28;20157;-77
2022/09/11 12:36:18;;;;;;;3.92;1.50;;;22.10;99.90;;;;;;5069579;28;20041;-74
2022/09/11 12:38:52;;;;;;;4.15;1.40;;;22.40;99.90;;;;;;5079754;28;20107;-77
2022/09/11 12:41:34;;;;;;;2.83;1.40;;;22.40;99.90;;;;;;5078654;28;20052;-78
2022/09/11 12:44:02;;;;;;;2.00;1.10;;;22.50;99.90;;;;;;5079045;28;20044;-79
2022/09/11 12:46:27;;;;;;;5.78;1.55;;;22.40;99.90;;;;;;5086171;28;20051;-77
2022/09/11 12:49:09;;;;;;;4.20;1.30;;;22.40;99.90;;;;;;5081135;28;20036;-78
2022/09/11 12:51:48;;;;;;;3.45;1.60;;;22.30;99.90;;;;;;5078773;28;20099;-79
2022/09/11 12:54:24;;;;;;;5.10;1.40;;;22.20;99.90;;;;;;5072404;28;20053;-74
2022/09/11 12:57:01;;;;;;;3.13;1.40;;;22.00;99.90;;;;;;5051956;28;20055;-71
2022/09/11 12:59:37;;;;;;;3.92;1.60;;;21.90;99.90;;;;;;5053154;28;20044;-70
2022/09/11 13:02:19;;;;;;;3.95;1.60;;;21.70;99.90;;;;;;5048759;28;20066;-72